Time;durP1;ratioP1;P1;durP2;ratioP2;P2;SDS_P1;SDS_P2;PMS_P1;PMS_P2;Temp;Humidity;BMP_temperature;BMP_pressure;BME280_temperature;BME280_humidity;BME280_pressure;Samples;Min_cycle;Max_cycle;Signal;HPM_P1;HPM_P2
2023/10/15 00:00:13;;;;;;;11.27;9.18;;;;;;;;;;6279157;22;20000;-82
2023/10/15 00:02:42;;;;;;;11.70;9.57;;;;;;;;;;6279023;22;20061;-84
2023/10/15 00:05:09;;;;;;;11.43;9.70;;;;;;;;;;6278668;22;20008;-85
2023/10/15 00:07:34;;;;;;;13.88;10.30;;;;;;;;;;6278881;22;20003;-87
2023/10/15 00:10:00;;;;;;;11.35;9.65;;;;;;;;;;6278814;22;20094;-82
2023/10/15 00:12:25;;;;;;;12.93;9.75;;;;;;;;;;6278648;22;20004;-82
2023/10/15 00:14:51;;;;;;;12.43;9.90;;;;;;;;;;6278698;22;20419;-84
2023/10/15 00:17:16;;;;;;;13.85;10.00;;;;;;;;;;6251866;22;20073;-83
2023/10/15 00:19:42;;;;;;;13.65;10.10;;;;;;;;;;6278707;22;20061;-85
2023/10/15 00:22:07;;;;;;;14.00;10.27;;;;;;;;;;6278696;22;20014;-83
2023/10/15 00:24:33;;;;;;;12.10;10.23;;;;;;;;;;6278935;22;20033;-86
2023/10/15 00:26:59;;;;;;;12.50;10.48;;;;;;;;;;6278965;22;20408;-83
2023/10/15 00:29:25;;;;;;;14.48;9.73;;;;;;;;;;6278628;22;20470;-83
2023/10/15 00:31:51;;;;;;;12.70;10.20;;;;;;;;;;6278595;22;20003;-86
2023/10/15 00:34:17;;;;;;;15.57;10.07;;;;;;;;;;6278658;22;20000;-83
2023/10/15 00:36:43;;;;;;;14.30;10.20;;;;;;;;;;6278568;22;20022;-84
2023/10/15 00:39:20;;;;;;;12.80;10.23;;;;;;;;;;6278600;22;20014;-86
2023/10/15 00:41:47;;;;;;;12.85;10.32;;;;;;;;;;6278451;22;20021;-82
2023/10/15 00:44:14;;;;;;;13.40;9.70;;;;;;;;;;6278696;22;20007;-83
2023/10/15 00:46:41;;;;;;;16.50;10.70;;;;;;;;;;6278295;22;20078;-82
2023/10/15 00:49:10;;;;;;;14.55;10.10;;;;;;;;;;6251708;22;20008;-82
2023/10/15 00:51:44;;;;;;;13.57;10.23;;;;;;;;;;6251473;22;20022;-83
2023/10/15 00:54:15;;;;;;;14.20;10.13;;;;;;;;;;6251579;22;20252;-83
2023/10/15 00:56:44;;;;;;;12.50;10.20;;;;;;;;;;6255159;22;20041;-82
2023/10/15 00:59:17;;;;;;;12.00;10.10;;;;;;;;;;6283253;22;20082;-82
2023/10/15 01:04:31;;;;;;;12.43;10.75;;;;;;;;;;6288062;22;20067;-81
2023/10/15 01:07:00;;;;;;;11.95;9.82;;;;;;;;;;6282718;22;20000;-83
2023/10/15 01:09:29;;;;;;;11.77;10.33;;;;;;;;;;6282162;22;20023;-85
2023/10/15 01:12:19;;;;;;;14.87;10.13;;;;;;;;;;6282920;22;20248;-82
2023/10/15 01:14:45;;;;;;;14.82;9.45;;;;;;;;;;6281682;22;20544;-83
2023/10/15 01:17:10;;;;;;;15.02;9.70;;;;;;;;;;6282196;22;20037;-82
2023/10/15 01:19:36;;;;;;;14.43;10.45;;;;;;;;;;6282355;22;20000;-83
2023/10/15 01:22:17;;;;;;;12.15;9.35;;;;;;;;;;6255392;22;20038;-84
2023/10/15 01:24:43;;;;;;;14.30;9.38;;;;;;;;;;6281283;22;20004;-87
2023/10/15 01:27:11;;;;;;;13.27;8.88;;;;;;;;;;6279221;22;20061;-87
2023/10/15 01:29:44;;;;;;;11.82;10.23;;;;;;;;;;6279247;22;20031;-84
2023/10/15 01:32:11;;;;;;;10.90;9.73;;;;;;;;;;6278750;22;20004;-83
2023/10/15 01:34:37;;;;;;;11.00;9.55;;;;;;;;;;6251936;22;20023;-85
2023/10/15 01:39:53;;;;;;;13.93;9.15;;;;;;;;;;6289346;22;20035;-83
2023/10/15 01:45:17;;;;;;;10.90;8.80;;;;;;;;;;6281691;22;20014;-86
2023/10/15 01:50:31;;;;;;;11.02;9.30;;;;;;;;;;6288165;22;20015;-87
2023/10/15 01:53:04;;;;;;;13.65;9.95;;;;;;;;;;6251962;22;20004;-84
2023/10/15 01:55:30;;;;;;;11.50;9.50;;;;;;;;;;6279015;22;20010;-88
2023/10/15 01:58:00;;;;;;;11.77;9.38;;;;;;;;;;6278920;22;20027;-87
2023/10/15 02:03:01;;;;;;;13.07;10.00;;;;;;;;;;6286413;22;20326;-84
2023/10/15 02:05:40;;;;;;;12.25;9.02;;;;;;;;;;6278633;22;20078;-84
2023/10/15 02:08:06;;;;;;;;;;;;;;;;;;6279190;22;20459;-82
2023/10/15 02:10:31;;;;;;;12.60;9.45;;;;;;;;;;6278635;22;19911;-88
2023/10/15 02:13:03;;;;;;;12.40;9.25;;;;;;;;;;6278823;22;20334;-84
2023/10/15 02:15:33;;;;;;;10.52;9.32;;;;;;;;;;6278889;22;20010;-87
2023/10/15 02:17:59;;;;;;;12.18;9.02;;;;;;;;;;6278622;22;19996;-86
2023/10/15 02:21:00;;;;;;;12.13;9.88;;;;;;;;;;6278777;22;20004;-85
2023/10/15 02:23:18;;;;;;;13.90;9.60;;;;;;;;;;6275203;22;20006;-85
2023/10/15 02:25:48;;;;;;;13.43;10.38;;;;;;;;;;6251271;22;20008;-87
2023/10/15 02:28:20;;;;;;;10.90;9.77;;;;;;;;;;6278636;22;20026;-87
2023/10/15 02:30:48;;;;;;;13.52;10.07;;;;;;;;;;6278267;22;20000;-87
2023/10/15 02:33:18;;;;;;;12.52;10.35;;;;;;;;;;6278433;22;20003;-86
2023/10/15 02:35:46;;;;;;;14.73;11.10;;;;;;;;;;6277661;22;19999;-83
2023/10/15 02:38:12;;;;;;;12.70;10.05;;;;;;;;;;6278077;22;20026;-82
2023/10/15 02:43:25;;;;;;;13.77;9.93;;;;;;;;;;6277795;22;20117;-86
2023/10/15 02:45:50;;;;;;;15.93;11.63;;;;;;;;;;6277808;22;20004;-87
2023/10/15 02:48:19;;;;;;;16.33;11.05;;;;;;;;;;6278041;22;20358;-82
2023/10/15 02:50:58;;;;;;;12.98;9.82;;;;;;;;;;6277556;22;20441;-83
2023/10/15 02:53:26;;;;;;;14.43;10.55;;;;;;;;;;6277239;22;20456;-82
2023/10/15 02:55:52;;;;;;;13.57;10.18;;;;;;;;;;6277806;22;20042;-85
2023/10/15 02:58:22;;;;;;;13.10;10.90;;;;;;;;;;6277821;22;20032;-84
2023/10/15 03:00:51;;;;;;;;;;;;;;;;;;6278239;22;20004;-84
2023/10/15 03:03:22;;;;;;;;;;;;;;;;;;6250263;22;20238;-86
2023/10/15 03:05:49;;;;;;;14.75;10.50;;;;;;;;;;6277620;22;20372;-83
2023/10/15 03:08:20;;;;;;;12.73;10.23;;;;;;;;;;6277403;22;20073;-85
2023/10/15 03:10:46;;;;;;;15.85;10.43;;;;;;;;;;6277365;22;20007;-85
2023/10/15 03:13:14;;;;;;;12.60;10.75;;;;;;;;;;6277068;22;20008;-87
2023/10/15 03:15:48;;;;;;;14.85;10.65;;;;;;;;;;6277408;22;20000;-85
2023/10/15 03:18:22;;;;;;;14.27;10.50;;;;;;;;;;6277508;22;20074;-87
2023/10/15 03:20:49;;;;;;;15.45;10.23;;;;;;;;;;6277670;22;20004;-83
2023/10/15 03:23:19;;;;;;;14.02;10.60;;;;;;;;;;6277228;22;20007;-82
2023/10/15 03:25:57;;;;;;;16.23;11.13;;;;;;;;;;6277164;22;20003;-81
2023/10/15 03:28:23;;;;;;;14.32;10.52;;;;;;;;;;6277385;22;20075;-83
2023/10/15 03:30:54;;;;;;;15.00;10.40;;;;;;;;;;6277435;22;20038;-83
2023/10/15 03:33:22;;;;;;;14.20;10.65;;;;;;;;;;6277090;22;20010;-86
2023/10/15 03:35:54;;;;;;;16.75;11.60;;;;;;;;;;6277375;22;20074;-84
2023/10/15 03:38:23;;;;;;;14.07;10.02;;;;;;;;;;6277293;22;20117;-86
2023/10/15 03:41:06;;;;;;;11.40;10.15;;;;;;;;;;6277357;22;20004;-82
2023/10/15 03:43:35;;;;;;;12.15;9.60;;;;;;;;;;6277334;22;20121;-84
2023/10/15 03:46:13;;;;;;;12.10;10.03;;;;;;;;;;6277607;22;20003;-84
2023/10/15 03:48:47;;;;;;;15.40;10.23;;;;;;;;;;6277204;22;20330;-86
2023/10/15 03:51:23;;;;;;;13.65;10.80;;;;;;;;;;6249850;22;20045;-82
2023/10/15 03:53:51;;;;;;;14.02;11.13;;;;;;;;;;6276919;22;20308;-86
2023/10/15 03:56:27;;;;;;;16.00;10.82;;;;;;;;;;6277102;22;20054;-87
2023/10/15 03:58:53;;;;;;;12.90;9.93;;;;;;;;;;6277058;22;20015;-82
2023/10/15 04:01:19;;;;;;;13.18;10.35;;;;;;;;;;6276881;22;20004;-83
2023/10/15 04:03:49;;;;;;;12.05;9.52;;;;;;;;;;6276736;22;20012;-86
2023/10/15 04:06:19;;;;;;;14.10;10.73;;;;;;;;;;6277303;22;20000;-83
2023/10/15 04:11:38;;;;;;;14.25;9.73;;;;;;;;;;6287442;22;20007;-86
2023/10/15 04:14:37;;;;;;;12.85;10.32;;;;;;;;;;6277403;22;20004;-84
2023/10/15 04:16:57;;;;;;;12.68;10.77;;;;;;;;;;6271058;22;20077;-86
2023/10/15 04:19:25;;;;;;;13.10;10.40;;;;;;;;;;6277040;22;20331;-84
2023/10/15 04:21:52;;;;;;;19.60;10.15;;;;;;;;;;6278150;22;20423;-85
2023/10/15 04:24:33;;;;;;;13.52;9.90;;;;;;;;;;6278746;22;20003;-83
2023/10/15 04:26:58;;;;;;;13.10;10.48;;;;;;;;;;6279133;22;20053;-86
2023/10/15 04:29:23;;;;;;;13.68;10.35;;;;;;;;;;6278771;22;19999;-85
2023/10/15 04:32:08;;;;;;;17.50;10.80;;;;;;;;;;6251838;22;20577;-81
2023/10/15 04:34:37;;;;;;;14.45;10.18;;;;;;;;;;6278385;22;19999;-85
2023/10/15 04:37:16;;;;;;;13.03;9.87;;;;;;;;;;6278719;22;20053;-81
2023/10/15 04:39:52;;;;;;;12.50;10.30;;;;;;;;;;6278668;22;20388;-81
2023/10/15 04:42:28;;;;;;;14.38;10.95;;;;;;;;;;6278373;22;20007;-82
2023/10/15 04:44:54;;;;;;;14.25;11.00;;;;;;;;;;6278622;22;20057;-82
2023/10/15 04:47:30;;;;;;;13.73;10.57;;;;;;;;;;6279170;22;20055;-82
2023/10/15 04:49:58;;;;;;;17.08;10.90;;;;;;;;;;6278659;22;20000;-83
2023/10/15 04:52:25;;;;;;;14.18;11.25;;;;;;;;;;6278655;22;20006;-82
2023/10/15 04:54:55;;;;;;;14.77;9.95;;;;;;;;;;6278627;22;20000;-86
2023/10/15 04:57:21;;;;;;;14.75;10.32;;;;;;;;;;6278455;22;20006;-82
2023/10/15 04:59:47;;;;;;;15.73;10.45;;;;;;;;;;6278335;22;20323;-88
2023/10/15 05:02:12;;;;;;;14.70;10.65;;;;;;;;;;6278665;22;20000;-83
2023/10/15 05:04:37;;;;;;;11.63;9.85;;;;;;;;;;6278533;22;20023;-86
2023/10/15 05:07:05;;;;;;;15.23;10.43;;;;;;;;;;6278903;22;20007;-86
2023/10/15 05:09:31;;;;;;;18.85;11.25;;;;;;;;;;6279005;22;20045;-87
2023/10/15 05:11:58;;;;;;;12.73;10.05;;;;;;;;;;6278766;22;20303;-89
2023/10/15 05:14:23;;;;;;;16.00;9.93;;;;;;;;;;6278934;22;20004;-89
2023/10/15 05:16:49;;;;;;;12.13;10.57;;;;;;;;;;6278898;22;20442;-86
2023/10/15 05:19:17;;;;;;;15.40;10.13;;;;;;;;;;6278674;22;20010;-83
2023/10/15 05:21:46;;;;;;;12.88;9.98;;;;;;;;;;6278649;22;20008;-91
2023/10/15 05:24:18;;;;;;;12.77;9.30;;;;;;;;;;6251842;22;20018;-90
2023/10/15 05:26:46;;;;;;;12.45;9.63;;;;;;;;;;6278720;22;20000;-89
2023/10/15 05:29:13;;;;;;;16.17;11.02;;;;;;;;;;6278936;22;20061;-88
2023/10/15 05:31:40;;;;;;;14.73;10.45;;;;;;;;;;6252387;22;20019;-91
2023/10/15 05:34:07;;;;;;;15.20;11.23;;;;;;;;;;6279415;22;20000;-92
2023/10/15 05:36:35;;;;;;;12.63;10.43;;;;;;;;;;6254205;22;20419;-92
2023/10/15 05:39:04;;;;;;;14.20;10.30;;;;;;;;;;6252425;22;20003;-90
2023/10/15 05:41:32;;;;;;;16.65;12.00;;;;;;;;;;6279060;22;20027;-89
2023/10/15 05:43:58;;;;;;;12.65;9.80;;;;;;;;;;6281175;22;20004;-89
2023/10/15 05:46:24;;;;;;;13.32;10.68;;;;;;;;;;6251168;22;20014;-88
2023/10/15 05:48:49;;;;;;;12.07;9.52;;;;;;;;;;6278062;22;20335;-87
2023/10/15 05:51:15;;;;;;;13.45;9.73;;;;;;;;;;6277982;22;20000;-87
2023/10/15 05:53:40;;;;;;;17.27;10.77;;;;;;;;;;6277929;22;20008;-83
2023/10/15 05:56:05;;;;;;;12.70;9.45;;;;;;;;;;6277918;22;20079;-82
2023/10/15 05:58:31;;;;;;;10.77;9.68;;;;;;;;;;6278329;22;20080;-85
2023/10/15 06:00:57;;;;;;;11.95;9.60;;;;;;;;;;6278326;22;20476;-87
2023/10/15 06:03:23;;;;;;;12.73;9.65;;;;;;;;;;6250821;22;20008;-87
2023/10/15 06:05:49;;;;;;;14.30;10.45;;;;;;;;;;6278652;22;20331;-87
2023/10/15 06:08:14;;;;;;;13.85;10.00;;;;;;;;;;6278264;22;20003;-89
2023/10/15 06:10:39;;;;;;;15.85;9.60;;;;;;;;;;6278189;22;20011;-88
2023/10/15 06:13:05;;;;;;;14.65;10.30;;;;;;;;;;6278800;22;20067;-89
2023/10/15 06:15:30;;;;;;;11.75;10.02;;;;;;;;;;6278145;22;19999;-91
2023/10/15 06:17:56;;;;;;;11.20;9.02;;;;;;;;;;6277939;22;20008;-87
2023/10/15 06:20:22;;;;;;;13.77;9.98;;;;;;;;;;6278482;22;20008;-84
2023/10/15 07:47:39;;;;;;;8.60;6.72;;;;;;;;;;6248268;22;20057;-81
2023/10/15 07:50:07;;;;;;;7.40;6.53;;;;;;;;;;6277444;22;20023;-80
2023/10/15 07:52:33;;;;;;;6.88;5.78;;;;;;;;;;6277159;22;20000;-82
2023/10/15 07:54:59;;;;;;;6.85;5.90;;;;;;;;;;6277426;22;20004;-82
2023/10/15 07:57:26;;;;;;;6.78;6.00;;;;;;;;;;6279189;22;20039;-82
2023/10/15 07:59:54;;;;;;;8.05;5.88;;;;;;;;;;6279044;22;20411;-82
2023/10/15 08:02:21;;;;;;;7.78;5.50;;;;;;;;;;6279078;22;20008;-82
2023/10/15 08:04:47;;;;;;;6.55;5.47;;;;;;;;;;6279108;22;20082;-82
2023/10/15 08:07:13;;;;;;;6.07;5.35;;;;;;;;;;6279182;22;20413;-82
2023/10/15 08:09:38;;;;;;;7.43;5.63;;;;;;;;;;6278903;22;20070;-82
2023/10/15 08:12:04;;;;;;;6.90;5.57;;;;;;;;;;6278842;22;20004;-81
2023/10/15 08:14:30;;;;;;;8.05;5.57;;;;;;;;;;6278631;22;20007;-82
2023/10/15 08:16:55;;;;;;;8.43;5.93;;;;;;;;;;6279325;22;20003;-82
2023/10/15 08:19:21;;;;;;;7.57;5.68;;;;;;;;;;6278953;22;20429;-82
2023/10/15 08:21:46;;;;;;;7.38;6.18;;;;;;;;;;6278696;22;20000;-82
2023/10/15 08:24:14;;;;;;;9.27;6.72;;;;;;;;;;6278637;22;20003;-82
2023/10/15 08:26:41;;;;;;;6.05;5.43;;;;;;;;;;6278826;22;20300;-82
2023/10/15 08:29:09;;;;;;;9.55;7.60;;;;;;;;;;6278729;22;20007;-82
2023/10/15 08:31:36;;;;;;;10.38;7.88;;;;;;;;;;6278801;22;20031;-82
2023/10/15 08:34:02;;;;;;;7.43;5.85;;;;;;;;;;6278910;22;20083;-81
2023/10/15 08:36:27;;;;;;;7.78;6.18;;;;;;;;;;6278665;22;20304;-82
2023/10/15 08:38:53;;;;;;;8.02;6.35;;;;;;;;;;6279013;22;20407;-82
2023/10/15 08:41:21;;;;;;;7.57;5.68;;;;;;;;;;6278811;22;20003;-82
2023/10/15 08:43:50;;;;;;;6.82;5.57;;;;;;;;;;6278404;22;20026;-82
2023/10/15 08:46:22;;;;;;;6.05;5.32;;;;;;;;;;6278628;22;20003;-85
2023/10/15 08:48:49;;;;;;;9.13;5.18;;;;;;;;;;6252299;22;20075;-88
2023/10/15 08:51:21;;;;;;;5.60;4.88;;;;;;;;;;6279724;22;20004;-89
2023/10/15 08:53:50;;;;;;;5.65;4.60;;;;;;;;;;6279050;22;20438;-89
2023/10/15 08:56:25;;;;;;;6.82;3.70;;;;;;;;;;6251929;22;20011;-88
2023/10/15 08:58:52;;;;;;;4.55;3.30;;;;;;;;;;6279077;22;20011;-89
2023/10/15 09:01:21;;;;;;;4.05;3.65;;;;;;;;;;6252555;22;20011;-88
2023/10/15 09:03:47;;;;;;;4.78;3.63;;;;;;;;;;6251162;22;20075;-88
2023/10/15 09:06:14;;;;;;;6.10;5.00;;;;;;;;;;6251288;22;20014;-89
2023/10/15 09:08:43;;;;;;;3.70;3.40;;;;;;;;;;6251322;22;20007;-90
2023/10/15 09:11:10;;;;;;;3.55;3.25;;;;;;;;;;6251384;22;20003;-88
2023/10/15 09:13:36;;;;;;;3.90;3.30;;;;;;;;;;6278161;22;20030;-89
2023/10/15 09:16:04;;;;;;;3.75;2.90;;;;;;;;;;6278364;22;20004;-89
2023/10/15 09:18:35;;;;;;;3.47;2.92;;;;;;;;;;6278386;22;20000;-88
2023/10/15 09:21:03;;;;;;;3.33;2.97;;;;;;;;;;6278462;22;20099;-88
2023/10/15 09:23:39;;;;;;;6.18;2.97;;;;;;;;;;6250781;22;20010;-86
2023/10/15 09:26:07;;;;;;;4.25;3.17;;;;;;;;;;6278247;22;20004;-85
2023/10/15 09:28:36;;;;;;;3.58;2.75;;;;;;;;;;6278134;22;20008;-85
2023/10/15 09:31:06;;;;;;;5.13;3.03;;;;;;;;;;6278182;22;20129;-86
2023/10/15 12:21:31;;;;;;;1.20;1.00;;;;;;;;;;6249902;22;20007;-84
2023/10/15 12:23:58;;;;;;;0.82;0.80;;;;;;;;;;6278964;22;20417;-84
2023/10/15 12:26:23;;;;;;;0.88;0.88;;;;;;;;;;6279087;22;20015;-84
2023/10/15 12:28:51;;;;;;;0.90;0.80;;;;;;;;;;6279542;22;20003;-84
2023/10/15 12:31:17;;;;;;;0.70;0.70;;;;;;;;;;6280211;22;20083;-85
2023/10/15 12:33:43;;;;;;;0.90;0.90;;;;;;;;;;6252063;22;20007;-83
2023/10/15 12:36:09;;;;;;;1.05;0.77;;;;;;;;;;6279145;22;20007;-82
2023/10/15 12:38:35;;;;;;;0.80;0.80;;;;;;;;;;6279023;22;20007;-83
2023/10/15 12:41:02;;;;;;;2.05;0.70;;;;;;;;;;6251466;22;20016;-83
2023/10/15 12:43:28;;;;;;;0.70;0.70;;;;;;;;;;6278471;22;20030;-83
2023/10/15 12:45:54;;;;;;;0.90;0.90;;;;;;;;;;6279668;22;20414;-83
2023/10/15 12:48:20;;;;;;;0.90;0.90;;;;;;;;;;6278368;22;20000;-83
2023/10/15 12:50:49;;;;;;;0.77;0.77;;;;;;;;;;6278424;22;20000;-83
2023/10/15 12:53:16;;;;;;;0.85;0.85;;;;;;;;;;6278588;22;20019;-83
2023/10/15 12:55:43;;;;;;;2.10;0.73;;;;;;;;;;6278784;22;20004;-83
2023/10/15 12:58:10;;;;;;;2.47;1.00;;;;;;;;;;6278578;22;20000;-83
2023/10/15 13:00:39;;;;;;;0.70;0.70;;;;;;;;;;6278531;22;20446;-83
2023/10/15 13:03:05;;;;;;;0.80;0.80;;;;;;;;;;6278155;22;20008;-83
2023/10/15 13:05:31;;;;;;;2.08;1.00;;;;;;;;;;6278591;22;20014;-82
2023/10/15 13:07:57;;;;;;;1.08;0.80;;;;;;;;;;6278679;22;20007;-83
2023/10/15 13:10:22;;;;;;;0.70;0.70;;;;;;;;;;6278606;22;20000;-83
2023/10/15 13:12:49;;;;;;;0.80;0.80;;;;;;;;;;6278403;22;20000;-83
2023/10/15 13:15:17;;;;;;;0.75;0.75;;;;;;;;;;6278349;22;20004;-84
2023/10/15 13:17:43;;;;;;;0.98;0.80;;;;;;;;;;6250684;22;20078;-83
2023/10/15 13:20:13;;;;;;;0.90;0.90;;;;;;;;;;6250671;22;20039;-83
2023/10/15 13:22:40;;;;;;;0.95;0.77;;;;;;;;;;6250755;22;20439;-83
2023/10/15 13:25:06;;;;;;;0.80;0.80;;;;;;;;;;6278137;22;20049;-83
2023/10/15 13:27:33;;;;;;;1.13;0.90;;;;;;;;;;6251056;22;20015;-83
2023/10/15 13:30:00;;;;;;;0.98;0.88;;;;;;;;;;6278087;22;20056;-83
2023/10/15 13:32:26;;;;;;;0.93;0.88;;;;;;;;;;6250764;22;20059;-83
2023/10/15 13:34:51;;;;;;;0.80;0.80;;;;;;;;;;6250846;22;20016;-83
2023/10/15 13:37:17;;;;;;;0.90;0.90;;;;;;;;;;6276854;22;20000;-83
2023/10/15 13:39:43;;;;;;;0.80;0.80;;;;;;;;;;6277769;22;20478;-83
2023/10/15 13:42:08;;;;;;;0.65;0.65;;;;;;;;;;6277620;22;20039;-83
2023/10/15 13:44:34;;;;;;;0.95;0.90;;;;;;;;;;6251250;22;20041;-83
2023/10/15 13:47:00;;;;;;;1.05;0.90;;;;;;;;;;6277697;22;20000;-83
2023/10/15 13:49:26;;;;;;;1.00;1.00;;;;;;;;;;6277622;22;20004;-83
2023/10/15 13:51:52;;;;;;;0.75;0.75;;;;;;;;;;6277732;22;20042;-83
2023/10/15 13:54:18;;;;;;;1.20;1.10;;;;;;;;;;6277402;22;20075;-83
2023/10/15 13:56:43;;;;;;;0.90;0.80;;;;;;;;;;6277485;22;20010;-83
2023/10/15 13:59:09;;;;;;;3.53;1.00;;;;;;;;;;6277529;22;20023;-83
2023/10/15 14:01:37;;;;;;;1.10;1.00;;;;;;;;;;6277297;22;20049;-83
2023/10/15 14:04:05;;;;;;;1.20;1.10;;;;;;;;;;6277715;22;20003;-83
2023/10/15 14:06:31;;;;;;;1.52;1.42;;;;;;;;;;6277835;22;20014;-83
2023/10/15 14:08:57;;;;;;;2.78;2.38;;;;;;;;;;6277472;22;20028;-83
2023/10/15 14:11:22;;;;;;;1.30;1.20;;;;;;;;;;6277534;22;20011;-83
2023/10/15 14:13:48;;;;;;;1.60;1.27;;;;;;;;;;6277667;22;20078;-83
2023/10/15 14:16:13;;;;;;;1.65;1.55;;;;;;;;;;6277177;22;20322;-82
2023/10/15 14:18:41;;;;;;;1.63;1.38;;;;;;;;;;6277730;22;19999;-83
2023/10/15 14:21:08;;;;;;;1.13;1.02;;;;;;;;;;6277317;22;20012;-83
2023/10/15 14:23:34;;;;;;;2.90;1.20;;;;;;;;;;6277489;22;20442;-82
2023/10/15 14:26:01;;;;;;;1.20;1.10;;;;;;;;;;6250116;22;20011;-84
2023/10/15 14:28:26;;;;;;;2.70;1.20;;;;;;;;;;6277278;22;20004;-79
2023/10/15 14:30:53;;;;;;;1.20;1.10;;;;;;;;;;6277329;22;20003;-80
2023/10/15 14:33:19;;;;;;;0.90;0.90;;;;;;;;;;6277270;22;19999;-82
2023/10/15 14:35:45;;;;;;;1.35;0.90;;;;;;;;;;6277360;22;20004;-83
2023/10/15 14:38:11;;;;;;;1.20;1.10;;;;;;;;;;6277221;22;20099;-82
2023/10/15 14:40:38;;;;;;;0.90;0.90;;;;;;;;;;6277460;22;20049;-82
2023/10/15 14:43:03;;;;;;;0.85;0.85;;;;;;;;;;6278181;22;20006;-84
2023/10/15 14:45:29;;;;;;;0.80;0.80;;;;;;;;;;6250476;22;20000;-86
2023/10/15 14:47:55;;;;;;;1.00;0.90;;;;;;;;;;6277655;22;20155;-89
2023/10/15 14:50:20;;;;;;;0.80;0.80;;;;;;;;;;6250348;22;20171;-83
2023/10/15 14:52:46;;;;;;;0.90;0.90;;;;;;;;;;6277431;22;20386;-85
2023/10/15 14:55:12;;;;;;;0.90;0.90;;;;;;;;;;6277277;22;20034;-86
2023/10/15 14:57:38;;;;;;;0.88;0.88;;;;;;;;;;6249947;22;20008;-84
2023/10/15 15:00:04;;;;;;;1.00;1.00;;;;;;;;;;6277123;22;20063;-84
2023/10/15 15:02:30;;;;;;;1.10;0.93;;;;;;;;;;6250135;22;20015;-85
2023/10/15 15:04:55;;;;;;;0.80;0.80;;;;;;;;;;6276865;22;20067;-85
2023/10/15 15:07:21;;;;;;;1.08;0.98;;;;;;;;;;6250086;22;20015;-85
2023/10/15 15:09:46;;;;;;;2.05;0.90;;;;;;;;;;6277241;22;20004;-85
2023/10/15 15:12:12;;;;;;;0.85;0.85;;;;;;;;;;6277081;22;20061;-83
2023/10/15 15:14:38;;;;;;;1.20;1.10;;;;;;;;;;6250188;22;20004;-84
2023/10/15 15:17:05;;;;;;;0.80;0.80;;;;;;;;;;6250167;22;20007;-85
2023/10/15 15:19:31;;;;;;;1.00;0.90;;;;;;;;;;6277959;22;20012;-85
2023/10/15 15:21:57;;;;;;;0.90;0.90;;;;;;;;;;6249751;22;20023;-86
2023/10/15 15:24:24;;;;;;;0.90;0.90;;;;;;;;;;6277193;22;20004;-85
2023/10/15 15:26:50;;;;;;;5.47;1.17;;;;;;;;;;6277111;22;20057;-86
2023/10/15 15:29:16;;;;;;;8.25;1.20;;;;;;;;;;6224631;22;20008;-84
2023/10/15 15:31:42;;;;;;;1.40;0.73;;;;;;;;;;6277320;22;20004;-85
2023/10/15 15:34:08;;;;;;;0.95;0.90;;;;;;;;;;6277669;22;20011;-85
2023/10/15 15:36:34;;;;;;;0.95;0.50;;;;;;;;;;6277136;22;20000;-85
2023/10/15 15:39:00;;;;;;;0.80;0.80;;;;;;;;;;6276985;22;20061;-85
2023/10/15 21:10:48;;;;;;;1.00;1.00;;;;;;;;;;6213801;22;20923;31
2023/10/15 21:13:14;;;;;;;0.90;0.90;;;;;;;;;;6184896;23;20021;-86
2023/10/15 21:15:39;;;;;;;0.80;0.77;;;;;;;;;;6188654;23;20008;-89
2023/10/15 21:18:05;;;;;;;1.00;1.00;;;;;;;;;;6189137;23;20131;-88
2023/10/15 21:20:31;;;;;;;0.80;0.80;;;;;;;;;;6212669;23;20016;-88
2023/10/15 21:22:57;;;;;;;1.30;0.90;;;;;;;;;;6185952;23;20004;-87
2023/10/15 21:25:23;;;;;;;1.63;0.70;;;;;;;;;;6187853;23;20012;-87
2023/10/15 21:27:48;;;;;;;1.55;0.70;;;;;;;;;;6160978;23;20009;-89
2023/10/15 21:30:14;;;;;;;3.42;0.80;;;;;;;;;;6161073;23;20043;-88
2023/10/15 21:32:39;;;;;;;0.82;0.63;;;;;;;;;;6185739;23;20005;-87
